createdAt,value
2023-03-01T00:00:49.430Z,0.00
2023-03-01T00:01:49.418Z,0.00
2023-03-01T00:02:49.402Z,0.00
2023-03-01T00:03:49.510Z,0.00
2023-03-01T00:04:49.516Z,0.00
2023-03-01T00:05:49.362Z,0.00
2023-03-01T00:06:49.349Z,0.00
2023-03-01T00:07:49.343Z,0.00
2023-03-01T00:08:49.314Z,0.00
2023-03-01T00:09:49.314Z,0.00
2023-03-01T00:10:49.329Z,0.00
2023-03-01T00:11:49.280Z,0.00
2023-03-01T00:12:49.267Z,0.00
2023-03-01T00:13:49.248Z,0.00
2023-03-01T00:14:49.240Z,0.00
2023-03-01T00:15:49.229Z,0.00
2023-03-01T00:16:49.230Z,0.00
2023-03-01T00:17:49.205Z,0.00
2023-03-01T00:18:49.177Z,0.00
2023-03-01T00:19:49.168Z,0.00
2023-03-01T00:20:49.449Z,0.00
2023-03-01T00:21:49.145Z,0.00
2023-03-01T00:22:49.135Z,0.00
2023-03-01T00:23:49.116Z,0.00
2023-03-01T00:24:49.097Z,0.00
2023-03-01T00:25:49.086Z,0.00
2023-03-01T00:26:49.094Z,0.00
2023-03-01T00:27:49.072Z,0.00
2023-03-01T00:28:49.053Z,0.00
2023-03-01T00:29:49.044Z,0.00
2023-03-01T00:30:49.165Z,0.00
2023-03-01T00:31:49.082Z,0.00
2023-03-01T00:32:49.002Z,0.00
2023-03-01T00:33:48.990Z,0.00
2023-03-01T00:34:48.970Z,0.00
2023-03-01T00:35:49.027Z,0.00
2023-03-01T00:36:48.948Z,0.00
2023-03-01T00:37:48.941Z,0.00
2023-03-01T00:38:48.921Z,0.00
2023-03-01T00:39:48.907Z,0.00
2023-03-01T00:40:48.888Z,0.00
2023-03-01T00:41:48.901Z,0.00
2023-03-01T00:42:48.888Z,0.00
2023-03-01T00:43:48.859Z,0.00
2023-03-01T00:44:48.866Z,0.00
2023-03-01T00:45:48.873Z,0.00
2023-03-01T00:46:48.819Z,0.00
2023-03-01T00:47:48.812Z,0.00
2023-03-01T00:48:48.789Z,0.00
2023-03-01T00:49:48.805Z,0.00
2023-03-01T00:50:48.776Z,0.00
2023-03-01T00:51:48.756Z,0.00
2023-03-01T00:52:48.738Z,0.00
2023-03-01T00:53:48.742Z,0.00
2023-03-01T00:54:48.721Z,0.00
2023-03-01T00:55:48.698Z,0.00
2023-03-01T00:56:48.690Z,0.00
2023-03-01T00:57:48.676Z,0.00
2023-03-01T00:58:48.687Z,0.00
2023-03-01T00:59:48.652Z,0.00
2023-03-01T01:00:48.883Z,0.00
2023-03-01T01:01:48.692Z,0.00
2023-03-01T01:02:48.687Z,0.00
2023-03-01T01:03:48.604Z,0.00
2023-03-01T01:04:48.591Z,0.00
2023-03-01T01:05:48.574Z,0.00
2023-03-01T01:06:48.556Z,0.00
2023-03-01T01:07:48.548Z,0.00
2023-03-01T01:08:48.532Z,0.00
2023-03-01T01:09:48.523Z,0.00
2023-03-01T01:10:48.496Z,0.00
2023-03-01T01:11:48.493Z,0.00
2023-03-01T01:12:48.476Z,0.00
2023-03-01T01:13:48.487Z,0.00
2023-03-01T01:14:48.472Z,0.00
2023-03-01T01:15:48.484Z,0.00
2023-03-01T01:16:48.423Z,0.00
2023-03-01T01:17:48.411Z,0.00
2023-03-01T01:18:48.399Z,0.00
2023-03-01T01:19:48.400Z,0.00
2023-03-01T01:20:48.372Z,0.00
2023-03-01T01:21:48.661Z,0.00
2023-03-01T01:22:48.544Z,0.00
2023-03-01T01:23:48.331Z,0.00
2023-03-01T01:24:48.330Z,0.00
2023-03-01T01:25:48.308Z,0.00
2023-03-01T01:26:48.299Z,0.00
2023-03-01T01:27:48.287Z,0.00
2023-03-01T01:28:48.289Z,0.00
2023-03-01T01:29:48.274Z,0.00
2023-03-01T01:30:48.291Z,0.00
2023-03-01T01:31:48.580Z,0.00
2023-03-01T01:32:48.227Z,0.00
2023-03-01T01:33:48.208Z,0.00
2023-03-01T01:34:48.191Z,0.00
2023-03-01T01:35:48.228Z,0.00
2023-03-01T01:36:48.171Z,0.00
2023-03-01T01:37:48.165Z,0.00
2023-03-01T01:38:48.141Z,0.00
2023-03-01T01:39:48.130Z,0.00
2023-03-01T01:40:48.108Z,0.00
2023-03-01T01:41:48.101Z,0.00
2023-03-01T01:42:48.078Z,0.00
2023-03-01T01:43:48.078Z,0.00
2023-03-01T01:44:48.059Z,0.00
2023-03-01T01:45:48.048Z,0.00
2023-03-01T01:46:48.257Z,0.00
2023-03-01T01:47:48.017Z,0.00
2023-03-01T01:48:48.003Z,0.00
2023-03-01T01:49:47.997Z,0.00
2023-03-01T01:50:47.981Z,0.00
2023-03-01T01:51:47.972Z,0.00
2023-03-01T01:52:47.948Z,0.00
2023-03-01T01:53:47.948Z,0.00
2023-03-01T01:54:47.929Z,0.00
2023-03-01T01:55:47.919Z,0.00
2023-03-01T01:56:47.899Z,0.00
2023-03-01T01:57:47.884Z,0.00
2023-03-01T01:58:47.879Z,0.00
2023-03-01T01:59:47.861Z,0.00
2023-03-01T02:00:47.853Z,0.00
2023-03-01T02:01:47.838Z,0.00
2023-03-01T02:02:47.943Z,0.00
2023-03-01T02:03:47.902Z,0.00
2023-03-01T02:04:47.799Z,0.00
2023-03-01T02:05:54.734Z,0.00
2023-03-01T02:06:48.793Z,0.00
2023-03-01T02:07:47.756Z,0.00
2023-03-01T02:08:47.794Z,0.00
2023-03-01T02:09:47.756Z,0.00
2023-03-01T02:10:47.718Z,0.00
2023-03-01T02:11:47.714Z,0.00
2023-03-01T02:12:47.694Z,0.00
2023-03-01T02:13:47.685Z,0.00
2023-03-01T02:14:47.687Z,0.00
2023-03-01T02:15:47.739Z,0.00
2023-03-01T02:16:47.814Z,0.00
2023-03-01T02:17:47.624Z,0.00
2023-03-01T02:18:47.753Z,0.00
2023-03-01T02:19:47.599Z,0.00
2023-03-01T02:20:47.581Z,0.00
2023-03-01T02:21:47.567Z,0.00
2023-03-01T02:22:47.555Z,0.00
2023-03-01T02:23:47.547Z,0.00
2023-03-01T02:24:47.530Z,0.00
2023-03-01T02:25:47.518Z,0.00
2023-03-01T02:26:47.511Z,0.00
2023-03-01T02:27:47.544Z,0.00
2023-03-01T02:28:47.525Z,0.00
2023-03-01T02:29:47.468Z,0.00
2023-03-01T02:30:47.445Z,0.00
2023-03-01T02:31:47.630Z,0.00
2023-03-01T02:32:47.526Z,0.00
2023-03-01T02:33:47.404Z,0.00
2023-03-01T02:34:47.413Z,0.00
2023-03-01T02:35:47.391Z,0.00
2023-03-01T02:36:47.369Z,0.00
2023-03-01T02:37:47.456Z,0.00
2023-03-01T02:38:47.340Z,0.00
2023-03-01T02:39:47.341Z,0.00
2023-03-01T02:40:47.320Z,0.00
2023-03-01T02:41:47.303Z,0.00
2023-03-01T02:42:47.584Z,0.00
2023-03-01T02:43:47.270Z,0.00
2023-03-01T02:44:47.259Z,0.00
2023-03-01T02:45:47.251Z,0.00
2023-03-01T02:46:47.300Z,0.00
2023-03-01T02:47:47.578Z,0.00
2023-03-01T02:48:47.216Z,0.00
2023-03-01T02:49:47.196Z,0.00
2023-03-01T02:50:47.198Z,0.00
2023-03-01T02:51:47.170Z,0.00
2023-03-01T02:52:47.159Z,0.00
2023-03-01T02:53:47.140Z,0.00
2023-03-01T02:54:47.129Z,0.00
2023-03-01T02:55:47.114Z,0.00
2023-03-01T02:56:47.104Z,0.00
2023-03-01T02:57:47.095Z,0.00
2023-03-01T02:58:47.072Z,0.00
2023-03-01T02:59:47.062Z,0.00
2023-03-01T03:00:47.151Z,0.00
2023-03-01T03:01:47.479Z,0.00
2023-03-01T03:02:47.372Z,0.00
2023-03-01T03:03:47.099Z,0.00
2023-03-01T03:04:47.002Z,0.00
2023-03-01T03:05:46.987Z,0.00
2023-03-01T03:06:46.997Z,0.00
2023-03-01T03:07:46.965Z,0.00
2023-03-01T03:08:46.948Z,0.00
2023-03-01T03:09:46.933Z,0.00
2023-03-01T03:10:47.218Z,0.00
2023-03-01T03:11:46.905Z,0.00
2023-03-01T03:12:46.981Z,0.00
2023-03-01T03:13:46.881Z,0.00
2023-03-01T03:14:46.864Z,0.00
2023-03-01T03:15:46.868Z,0.00
2023-03-01T03:16:46.844Z,0.00
2023-03-01T03:17:46.833Z,0.00
2023-03-01T03:18:46.811Z,0.00
2023-03-01T03:19:46.801Z,0.00
2023-03-01T03:20:46.793Z,0.00
2023-03-01T03:21:46.785Z,0.00
2023-03-01T03:22:46.792Z,0.00
2023-03-01T03:23:46.737Z,0.00
2023-03-01T03:24:46.747Z,0.00
2023-03-01T03:25:46.717Z,0.00
2023-03-01T03:26:46.706Z,0.00
2023-03-01T03:27:47.054Z,0.00
2023-03-01T03:28:46.675Z,0.00
2023-03-01T03:29:46.667Z,0.00
2023-03-01T03:30:46.653Z,0.00
2023-03-01T03:31:46.651Z,0.00
2023-03-01T03:32:46.616Z,0.00
2023-03-01T03:33:46.608Z,0.00
2023-03-01T03:34:46.589Z,0.00
2023-03-01T03:35:46.738Z,0.00
2023-03-01T03:36:46.561Z,0.00
2023-03-01T03:37:46.550Z,0.00
2023-03-01T03:38:46.568Z,0.00
2023-03-01T03:39:46.532Z,0.00
2023-03-01T03:40:46.510Z,0.00
2023-03-01T03:41:46.509Z,0.00
2023-03-01T03:42:46.486Z,0.00
2023-03-01T03:43:46.484Z,0.00
2023-03-01T03:44:46.457Z,0.00
2023-03-01T03:45:46.497Z,0.00
2023-03-01T03:46:46.431Z,0.00
2023-03-01T03:47:46.456Z,0.00
2023-03-01T03:48:46.412Z,0.00
2023-03-01T03:49:46.397Z,0.00
2023-03-01T03:50:46.379Z,0.00
2023-03-01T03:51:46.366Z,0.00
2023-03-01T03:52:46.357Z,0.00
2023-03-01T03:53:46.370Z,0.00
2023-03-01T03:54:46.352Z,0.00
2023-03-01T03:55:46.315Z,0.00
2023-03-01T03:56:46.300Z,0.00
2023-03-01T03:57:46.285Z,0.00
2023-03-01T03:58:46.298Z,0.00
2023-03-01T03:59:46.258Z,0.00
2023-03-01T04:00:46.242Z,0.00
2023-03-01T04:01:46.342Z,0.00
2023-03-01T04:02:46.277Z,0.00
2023-03-01T04:03:46.209Z,0.00
2023-03-01T04:04:46.191Z,0.00
2023-03-01T04:05:46.178Z,0.00
2023-03-01T04:06:46.170Z,0.00
2023-03-01T04:07:46.151Z,0.00
2023-03-01T04:08:46.155Z,0.00
2023-03-01T04:09:46.141Z,0.00
2023-03-01T04:10:46.136Z,0.00
2023-03-01T04:11:46.103Z,0.00
2023-03-01T04:12:46.092Z,0.00
2023-03-01T04:13:46.073Z,0.00
2023-03-01T04:14:47.979Z,0.00
2023-03-01T04:15:46.045Z,0.00
2023-03-01T04:16:46.067Z,0.00
2023-03-01T04:17:46.024Z,0.00
2023-03-01T04:18:46.009Z,0.00
2023-03-01T04:19:45.992Z,0.00
2023-03-01T04:20:46.009Z,0.00
2023-03-01T04:21:45.966Z,0.00
2023-03-01T04:22:45.962Z,0.00
2023-03-01T04:23:45.942Z,0.00
2023-03-01T04:24:45.925Z,0.00
2023-03-01T04:25:45.910Z,0.00
2023-03-01T04:26:45.928Z,0.00
2023-03-01T04:27:45.887Z,0.00
2023-03-01T04:28:46.426Z,0.00
2023-03-01T04:29:45.868Z,0.00
2023-03-01T04:30:45.852Z,0.00
2023-03-01T04:31:45.894Z,0.00
2023-03-01T04:32:45.870Z,0.00
2023-03-01T04:33:45.806Z,0.00
2023-03-01T04:34:45.809Z,0.00
2023-03-01T04:35:45.942Z,0.00
2023-03-01T04:36:45.938Z,0.00
2023-03-01T04:37:45.771Z,0.00
2023-03-01T04:38:45.745Z,0.00
2023-03-01T04:39:45.730Z,0.00
2023-03-01T04:40:45.720Z,0.00
2023-03-01T04:41:45.695Z,0.00
2023-03-01T04:42:45.715Z,0.00
2023-03-01T04:43:45.678Z,0.00
2023-03-01T04:44:45.660Z,0.00
2023-03-01T04:45:45.708Z,0.00
2023-03-01T04:46:45.636Z,0.00
2023-03-01T04:47:45.624Z,0.00
2023-03-01T04:48:45.616Z,0.00
2023-03-01T04:49:45.592Z,0.00
2023-03-01T04:50:45.583Z,0.00
2023-03-01T04:51:45.567Z,0.00
2023-03-01T04:52:45.552Z,0.00
2023-03-01T04:53:45.810Z,0.00
2023-03-01T04:54:45.972Z,0.00
2023-03-01T04:55:45.524Z,0.00
2023-03-01T04:56:45.500Z,0.00
2023-03-01T04:57:45.485Z,0.00
2023-03-01T04:58:45.498Z,0.00
2023-03-01T04:59:45.461Z,0.00
2023-03-01T05:00:45.451Z,0.00
2023-03-01T05:01:45.433Z,0.00
2023-03-01T05:02:45.444Z,0.00
2023-03-01T05:03:45.413Z,0.00
2023-03-01T05:04:45.437Z,0.00
2023-03-01T05:05:45.381Z,0.00
2023-03-01T05:06:45.366Z,0.00
2023-03-01T05:07:45.350Z,0.00
2023-03-01T05:08:45.350Z,0.00
2023-03-01T05:09:45.328Z,0.00
2023-03-01T05:10:45.317Z,0.00
2023-03-01T05:11:45.298Z,0.00
2023-03-01T05:12:45.283Z,0.00
2023-03-01T05:13:45.275Z,0.00
2023-03-01T05:14:45.282Z,0.00
2023-03-01T05:15:45.293Z,0.00
2023-03-01T05:16:45.231Z,0.00
2023-03-01T05:17:45.217Z,0.00
2023-03-01T05:18:45.261Z,0.00
2023-03-01T05:19:45.189Z,0.00
2023-03-01T05:20:45.184Z,0.00
2023-03-01T05:21:45.165Z,0.00
2023-03-01T05:22:45.152Z,0.00
2023-03-01T05:23:45.144Z,0.00
2023-03-01T05:24:45.124Z,0.00
2023-03-01T05:25:45.110Z,0.00
2023-03-01T05:26:45.101Z,0.00
2023-03-01T05:27:45.085Z,0.00
2023-03-01T05:28:45.070Z,0.00
2023-03-01T05:29:45.061Z,0.00
2023-03-01T05:30:45.099Z,0.00
2023-03-01T05:31:45.032Z,0.00
2023-03-01T05:32:45.022Z,0.00
2023-03-01T05:33:45.006Z,0.00
2023-03-01T05:34:44.997Z,0.00
2023-03-01T05:35:45.027Z,0.00
2023-03-01T05:36:44.968Z,0.00
2023-03-01T05:37:44.966Z,0.00
2023-03-01T05:38:44.942Z,0.00
2023-03-01T05:39:44.927Z,0.00
2023-03-01T05:40:44.913Z,4.00
2023-03-01T05:41:44.897Z,0.00
2023-03-01T05:42:44.890Z,0.00
2023-03-01T05:43:44.872Z,4.00
2023-03-01T05:44:44.861Z,0.00
2023-03-01T05:45:44.902Z,4.00
2023-03-01T05:46:44.862Z,4.00
2023-03-01T05:47:44.817Z,8.00
2023-03-01T05:48:44.875Z,8.00
2023-03-01T05:49:44.790Z,8.00
2023-03-01T05:50:44.783Z,8.00
2023-03-01T05:51:44.886Z,8.00
2023-03-01T05:52:44.749Z,12.00
2023-03-01T05:53:44.743Z,12.00
2023-03-01T05:54:44.737Z,16.00
2023-03-01T05:55:44.818Z,16.00
2023-03-01T05:56:44.706Z,20.00
2023-03-01T05:57:44.752Z,24.00
2023-03-01T05:58:44.681Z,24.00
2023-03-01T05:59:44.657Z,32.00
2023-03-01T06:00:44.664Z,36.00
2023-03-01T06:01:44.790Z,40.00
2023-03-01T06:02:44.654Z,44.00
2023-03-01T06:03:44.608Z,52.00
2023-03-01T06:04:44.757Z,60.00
2023-03-01T06:05:44.644Z,64.00
2023-03-01T06:06:44.566Z,72.00
2023-03-01T06:07:44.555Z,80.00
2023-03-01T06:08:44.538Z,88.00
2023-03-01T06:09:44.530Z,100.00
2023-03-01T06:10:44.518Z,104.00
2023-03-01T06:11:44.502Z,112.00
2023-03-01T06:12:44.491Z,120.00
2023-03-01T06:13:44.473Z,132.00
2023-03-01T06:14:44.468Z,144.00
2023-03-01T06:15:44.466Z,156.00
2023-03-01T06:16:44.433Z,168.00
2023-03-01T06:17:44.422Z,180.00
2023-03-01T06:18:44.459Z,188.00
2023-03-01T06:19:44.390Z,200.00
2023-03-01T06:20:44.385Z,212.00
2023-03-01T06:21:44.369Z,232.00
2023-03-01T06:22:44.367Z,256.00
2023-03-01T06:23:44.342Z,280.00
2023-03-01T06:24:44.325Z,304.00
2023-03-01T06:25:44.318Z,332.00
2023-03-01T06:26:44.301Z,348.00
2023-03-01T06:27:44.291Z,356.00
2023-03-01T06:28:44.276Z,384.00
2023-03-01T06:29:44.265Z,432.00
2023-03-01T06:30:44.250Z,520.00
2023-03-01T06:31:44.235Z,604.00
2023-03-01T06:32:44.228Z,688.00
2023-03-01T06:33:44.206Z,812.00
2023-03-01T06:34:44.244Z,916.00
2023-03-01T06:35:44.235Z,1020.00
2023-03-01T06:36:44.182Z,1180.00
2023-03-01T06:37:44.157Z,1412.00
2023-03-01T06:38:44.145Z,1640.00
2023-03-01T06:39:44.130Z,1712.00
2023-03-01T06:40:44.114Z,1692.00
2023-03-01T06:41:44.102Z,1732.00
2023-03-01T06:42:44.096Z,1772.00
2023-03-01T06:43:44.080Z,1816.00
2023-03-01T06:44:44.062Z,1876.00
2023-03-01T06:45:44.049Z,1948.00
2023-03-01T06:46:44.061Z,2020.00
2023-03-01T06:47:44.023Z,2072.00
2023-03-01T06:48:44.008Z,2116.00
2023-03-01T06:49:44.017Z,2184.00
2023-03-01T06:50:44.047Z,2216.00
2023-03-01T06:51:43.964Z,2280.00
2023-03-01T06:52:43.958Z,2368.00
2023-03-01T06:53:43.942Z,2488.00
2023-03-01T06:54:43.929Z,2592.00
2023-03-01T06:55:43.919Z,2644.00
2023-03-01T06:56:43.894Z,2712.00
2023-03-01T06:57:43.882Z,2784.00
2023-03-01T06:58:43.877Z,2836.00
2023-03-01T06:59:43.853Z,2808.00
2023-03-01T07:00:43.840Z,2928.00
2023-03-01T07:01:43.884Z,3156.00
2023-03-01T07:02:43.854Z,3264.00
2023-03-01T07:03:43.795Z,3416.00
2023-03-01T07:04:43.804Z,3500.00
2023-03-01T07:05:43.919Z,3632.00
2023-03-01T07:06:44.038Z,3728.00
2023-03-01T07:07:43.749Z,3720.00
2023-03-01T07:08:43.801Z,4144.00
2023-03-01T07:09:43.714Z,4356.00
2023-03-01T07:10:43.705Z,4304.00
2023-03-01T07:11:43.691Z,4308.00
2023-03-01T07:12:43.686Z,4276.00
2023-03-01T07:13:43.667Z,4180.00
2023-03-01T07:14:43.661Z,4528.00
2023-03-01T07:15:43.680Z,4940.00
2023-03-01T07:16:43.628Z,5060.00
2023-03-01T07:17:43.610Z,5164.00
2023-03-01T07:18:43.604Z,5420.00
2023-03-01T07:19:43.581Z,5276.00
2023-03-01T07:20:43.571Z,5148.00
2023-03-01T07:21:43.554Z,5184.00
2023-03-01T07:22:43.560Z,4924.00
2023-03-01T07:23:43.579Z,4948.00
2023-03-01T07:24:43.520Z,5028.00
2023-03-01T07:25:43.501Z,5152.00
2023-03-01T07:26:43.504Z,5320.00
2023-03-01T07:27:43.481Z,5680.00
2023-03-01T07:28:43.712Z,5696.00
2023-03-01T07:29:43.458Z,5484.00
2023-03-01T07:30:43.592Z,5484.00
2023-03-01T07:31:43.420Z,5520.00
2023-03-01T07:32:43.716Z,5548.00
2023-03-01T07:33:43.396Z,5640.00
2023-03-01T07:34:43.391Z,5696.00
2023-03-01T07:35:43.399Z,5896.00
2023-03-01T07:36:43.387Z,5872.00
2023-03-01T07:37:43.341Z,5776.00
2023-03-01T07:38:43.361Z,5848.00
2023-03-01T07:39:43.335Z,5764.00
2023-03-01T07:40:43.298Z,5680.00
2023-03-01T07:41:43.291Z,5604.00
2023-03-01T07:42:43.305Z,5592.00
2023-03-01T07:43:43.261Z,5612.00
2023-03-01T07:44:43.247Z,5680.00
2023-03-01T07:45:43.282Z,5736.00
2023-03-01T07:46:43.216Z,5796.00
2023-03-01T07:47:43.213Z,5956.00
2023-03-01T07:48:43.192Z,6188.00
2023-03-01T07:49:43.179Z,6036.00
2023-03-01T07:50:43.170Z,5932.00
2023-03-01T07:51:43.151Z,5848.00
2023-03-01T07:52:43.137Z,5808.00
2023-03-01T07:53:43.122Z,5884.00
2023-03-01T07:54:43.129Z,5920.00
2023-03-01T07:55:43.101Z,5884.00
2023-03-01T07:56:43.084Z,5936.00
2023-03-01T07:57:43.074Z,5944.00
2023-03-01T07:58:43.073Z,6392.00
2023-03-01T07:59:43.054Z,7020.00
2023-03-01T08:00:43.032Z,7696.00
2023-03-01T08:01:43.039Z,7544.00
2023-03-01T08:02:43.159Z,6768.00
2023-03-01T08:03:42.988Z,6612.00
2023-03-01T08:04:42.973Z,6692.00
2023-03-01T08:05:42.953Z,7016.00
2023-03-01T08:06:42.942Z,8164.00
2023-03-01T08:07:42.928Z,7072.00
2023-03-01T08:08:42.914Z,6512.00
2023-03-01T08:09:42.908Z,6456.00
2023-03-01T08:10:42.907Z,6464.00
2023-03-01T08:11:42.895Z,6484.00
2023-03-01T08:12:42.854Z,6552.00
2023-03-01T08:13:42.840Z,6588.00
2023-03-01T08:14:42.831Z,6584.00
2023-03-01T08:15:42.817Z,6688.00
2023-03-01T08:16:42.902Z,6724.00
2023-03-01T08:17:42.796Z,6800.00
2023-03-01T08:18:42.777Z,6932.00
2023-03-01T08:19:42.762Z,7120.00
2023-03-01T08:20:42.746Z,7292.00
2023-03-01T08:21:42.730Z,7496.00
2023-03-01T08:22:42.721Z,7672.00
2023-03-01T08:23:42.700Z,7872.00
2023-03-01T08:24:42.700Z,7932.00
2023-03-01T08:25:42.687Z,8040.00
2023-03-01T08:26:42.705Z,8272.00
2023-03-01T08:27:42.650Z,8808.00
2023-03-01T08:28:42.780Z,8980.00
2023-03-01T08:29:42.618Z,9340.00
2023-03-01T08:30:42.608Z,10612.00
2023-03-01T08:31:42.724Z,13376.00
2023-03-01T08:32:42.725Z,14560.00
2023-03-01T08:33:42.568Z,14656.00
2023-03-01T08:34:42.677Z,15200.00
2023-03-01T08:35:42.575Z,14272.00
2023-03-01T08:36:42.531Z,17152.00
2023-03-01T08:37:42.523Z,17760.00
2023-03-01T08:38:42.502Z,12136.00
2023-03-01T08:39:42.561Z,12684.00
2023-03-01T08:40:42.463Z,10596.00
2023-03-01T08:41:42.463Z,13636.00
2023-03-01T08:42:42.463Z,17440.00
2023-03-01T08:43:42.434Z,16768.00
2023-03-01T08:44:42.421Z,18144.00
2023-03-01T08:45:42.470Z,19040.00
2023-03-01T08:46:42.386Z,18592.00
2023-03-01T08:47:42.376Z,18048.00
2023-03-01T08:48:42.366Z,17600.00
2023-03-01T08:49:42.347Z,16704.00
2023-03-01T08:50:42.512Z,17696.00
2023-03-01T08:51:42.333Z,11808.00
2023-03-01T08:52:42.307Z,12452.00
2023-03-01T08:53:42.300Z,16480.00
2023-03-01T08:54:42.320Z,11404.00
2023-03-01T08:55:42.269Z,13380.00
2023-03-01T08:56:42.252Z,17696.00
2023-03-01T08:57:42.249Z,15200.00
2023-03-01T08:58:42.246Z,17216.00
2023-03-01T08:59:42.212Z,17696.00
2023-03-01T09:00:42.195Z,19264.00
2023-03-01T09:01:42.180Z,24320.00
2023-03-01T09:02:42.170Z,23200.00
2023-03-01T09:03:42.154Z,14540.00
2023-03-01T09:04:42.137Z,25024.00
2023-03-01T09:05:42.121Z,23712.00
2023-03-01T09:06:42.124Z,24576.00
2023-03-01T09:07:42.102Z,26432.00
2023-03-01T09:08:42.132Z,26592.00
2023-03-01T09:09:42.074Z,26528.00
2023-03-01T09:10:42.062Z,25728.00
2023-03-01T09:11:42.044Z,25952.00
2023-03-01T09:12:42.031Z,26688.00
2023-03-01T09:13:44.263Z,27584.00
2023-03-01T09:14:42.036Z,28864.00
2023-03-01T09:15:41.997Z,30112.00
2023-03-01T09:16:42.005Z,30464.00
2023-03-01T09:17:41.972Z,27776.00
2023-03-01T09:18:41.953Z,28960.00
2023-03-01T09:19:41.941Z,28256.00
2023-03-01T09:20:41.922Z,27424.00
2023-03-01T09:21:41.913Z,29152.00
2023-03-01T09:22:41.894Z,28864.00
2023-03-01T09:23:41.892Z,28192.00
2023-03-01T09:24:41.879Z,26496.00
2023-03-01T09:25:41.865Z,27584.00
2023-03-01T09:26:41.897Z,20768.00
2023-03-01T09:27:41.841Z,28640.00
2023-03-01T09:28:41.900Z,28480.00
2023-03-01T09:29:41.809Z,27936.00
2023-03-01T09:30:41.853Z,27328.00
2023-03-01T09:31:41.798Z,27872.00
2023-03-01T09:32:41.770Z,25248.00
2023-03-01T09:33:41.757Z,17120.00
2023-03-01T09:34:41.739Z,15168.00
2023-03-01T09:35:41.749Z,13952.00
2023-03-01T09:36:41.713Z,13968.00
2023-03-01T09:37:41.702Z,14384.00
2023-03-01T09:38:41.681Z,13908.00
2023-03-01T09:39:41.669Z,14628.00
2023-03-01T09:40:41.764Z,14724.00
2023-03-01T09:41:41.632Z,13900.00
2023-03-01T09:42:41.619Z,13356.00
2023-03-01T09:43:41.604Z,13024.00
2023-03-01T09:44:41.625Z,13316.00
2023-03-01T09:45:41.583Z,13984.00
2023-03-01T09:46:41.589Z,14720.00
2023-03-01T09:47:41.580Z,13964.00
2023-03-01T09:48:41.542Z,13672.00
2023-03-01T09:49:41.527Z,15968.00
2023-03-01T09:50:41.509Z,16928.00
2023-03-01T09:51:41.505Z,16928.00
2023-03-01T09:52:41.481Z,16416.00
2023-03-01T09:53:41.471Z,15968.00
2023-03-01T09:54:41.462Z,16224.00
2023-03-01T09:55:41.447Z,16768.00
2023-03-01T09:56:41.438Z,15096.00
2023-03-01T09:57:41.437Z,13368.00
2023-03-01T09:58:41.407Z,15068.00
2023-03-01T09:59:41.398Z,16352.00
2023-03-01T10:00:41.383Z,16960.00
2023-03-01T10:01:41.362Z,16640.00
2023-03-01T10:02:41.374Z,15808.00
2023-03-01T10:03:41.514Z,16608.00
2023-03-01T10:04:41.343Z,14776.00
2023-03-01T10:05:41.314Z,13336.00
2023-03-01T10:06:41.296Z,13140.00
2023-03-01T10:07:41.297Z,13080.00
2023-03-01T10:08:41.276Z,12920.00
2023-03-01T10:09:41.262Z,13036.00
2023-03-01T10:10:41.247Z,12596.00
2023-03-01T10:11:41.430Z,11996.00
2023-03-01T10:12:41.219Z,13872.00
2023-03-01T10:13:41.203Z,12616.00
2023-03-01T10:14:41.199Z,11984.00
2023-03-01T10:15:41.253Z,11760.00
2023-03-01T10:16:41.171Z,11012.00
2023-03-01T10:17:41.148Z,11164.00
2023-03-01T10:18:41.158Z,11140.00
2023-03-01T10:19:41.136Z,11100.00
2023-03-01T10:20:41.113Z,11388.00
2023-03-01T10:21:41.097Z,12544.00
2023-03-01T10:22:41.281Z,13232.00
2023-03-01T10:23:41.067Z,13480.00
2023-03-01T10:24:41.047Z,12484.00
2023-03-01T10:25:43.427Z,11700.00
2023-03-01T10:26:41.017Z,12052.00
2023-03-01T10:27:41.038Z,12740.00
2023-03-01T10:28:40.997Z,13336.00
2023-03-01T10:29:40.990Z,11700.00
2023-03-01T10:30:40.970Z,11136.00
2023-03-01T10:31:40.960Z,10000.00
2023-03-01T10:32:40.952Z,10132.00
2023-03-01T10:33:40.933Z,10248.00
2023-03-01T10:34:40.942Z,10704.00
2023-03-01T10:35:40.938Z,11240.00
2023-03-01T10:36:40.886Z,11232.00
2023-03-01T10:37:41.229Z,12088.00
2023-03-01T10:38:40.860Z,11040.00
2023-03-01T10:39:40.857Z,11328.00
2023-03-01T10:40:40.837Z,12444.00
2023-03-01T10:41:40.822Z,12408.00
2023-03-01T10:42:40.813Z,11964.00
2023-03-01T10:43:40.802Z,13332.00
2023-03-01T10:44:40.796Z,12356.00
2023-03-01T10:45:40.774Z,12920.00
2023-03-01T10:46:40.842Z,13704.00
2023-03-01T10:47:40.738Z,16032.00
2023-03-01T10:48:40.726Z,20576.00
2023-03-01T10:49:40.783Z,22848.00
2023-03-01T10:50:42.243Z,22464.00
2023-03-01T10:51:40.693Z,25248.00
2023-03-01T10:52:40.673Z,20960.00
2023-03-01T10:53:40.657Z,16128.00
2023-03-01T10:54:40.644Z,25824.00
2023-03-01T10:55:40.640Z,21632.00
2023-03-01T10:56:40.610Z,35328.00
2023-03-01T10:57:42.530Z,32160.00
2023-03-01T10:58:40.583Z,30944.00
2023-03-01T10:59:40.573Z,23904.00
2023-03-01T11:00:40.565Z,23136.00
2023-03-01T11:01:40.611Z,17664.00
2023-03-01T11:02:40.575Z,18464.00
2023-03-01T11:03:40.547Z,18688.00
2023-03-01T11:04:40.549Z,15212.00
2023-03-01T11:05:40.505Z,15924.00
2023-03-01T11:06:40.500Z,10300.00
2023-03-01T11:07:40.480Z,12352.00
2023-03-01T11:08:40.458Z,15392.00
2023-03-01T11:09:40.439Z,27680.00
2023-03-01T11:10:40.425Z,30560.00
2023-03-01T11:11:40.609Z,31104.00
2023-03-01T11:12:40.392Z,18528.00
2023-03-01T11:13:40.386Z,15396.00
2023-03-01T11:14:40.364Z,11700.00
2023-03-01T11:15:40.356Z,12100.00
2023-03-01T11:16:40.349Z,11820.00
2023-03-01T11:17:53.524Z,12740.00
2023-03-01T11:18:47.834Z,14052.00
2023-03-01T11:19:42.523Z,14304.00
2023-03-01T11:20:40.283Z,13328.00
2023-03-01T11:21:40.276Z,13536.00
2023-03-01T11:22:40.303Z,16160.00
2023-03-01T11:23:40.252Z,15808.00
2023-03-01T11:24:42.303Z,23168.00
2023-03-01T11:25:40.220Z,24512.00
2023-03-01T11:26:40.209Z,12820.00
2023-03-01T11:27:40.345Z,18048.00
2023-03-01T11:28:40.178Z,13224.00
2023-03-01T11:29:48.535Z,9864.00
2023-03-01T11:30:41.187Z,10060.00
2023-03-01T11:31:46.552Z,9808.00
2023-03-01T11:32:41.348Z,9748.00
2023-03-01T11:33:40.106Z,11004.00
2023-03-01T11:34:40.096Z,12332.00
2023-03-01T11:35:40.084Z,16960.00
2023-03-01T11:36:40.072Z,19168.00
2023-03-01T11:37:40.047Z,16480.00
2023-03-01T11:38:40.057Z,24480.00
2023-03-01T11:39:40.028Z,23744.00
2023-03-01T11:40:40.016Z,19680.00
2023-03-01T11:41:40.003Z,17888.00
2023-03-01T11:42:40.030Z,21120.00
2023-03-01T11:43:39.976Z,16128.00
2023-03-01T11:44:39.962Z,19296.00
2023-03-01T11:45:39.944Z,25920.00
2023-03-01T11:46:40.072Z,31200.00
2023-03-01T11:47:40.067Z,32704.00
2023-03-01T11:48:49.202Z,17888.00
2023-03-01T11:49:39.895Z,23904.00
2023-03-01T11:50:39.880Z,24160.00
2023-03-01T11:51:39.864Z,41728.00
2023-03-01T11:52:39.882Z,40736.00
2023-03-01T11:53:39.844Z,40672.00
2023-03-01T11:54:39.905Z,39808.00
2023-03-01T11:55:39.806Z,40064.00
2023-03-01T11:56:39.800Z,39168.00
2023-03-01T11:57:43.848Z,40192.00
2023-03-01T11:58:39.777Z,41280.00
2023-03-01T11:59:39.751Z,41728.00
2023-03-01T12:00:39.762Z,42304.00
2023-03-01T12:01:42.246Z,42400.00
2023-03-01T12:02:39.708Z,41344.00
2023-03-01T12:03:39.698Z,40576.00
2023-03-01T12:04:39.712Z,39520.00
2023-03-01T12:05:39.670Z,39936.00
2023-03-01T12:06:39.657Z,40000.00
2023-03-01T12:07:39.642Z,40736.00
2023-03-01T12:08:39.635Z,39520.00
2023-03-01T12:09:39.622Z,39904.00
2023-03-01T12:10:39.658Z,41664.00
2023-03-01T12:11:39.589Z,39904.00
2023-03-01T12:12:39.626Z,42528.00
2023-03-01T12:13:39.727Z,42560.00
2023-03-01T12:14:39.553Z,42432.00
2023-03-01T12:15:39.638Z,44960.00
2023-03-01T12:16:39.937Z,44608.00
2023-03-01T12:17:39.666Z,41472.00
2023-03-01T12:18:39.528Z,39936.00
2023-03-01T12:19:39.480Z,38336.00
2023-03-01T12:20:39.479Z,36736.00
2023-03-01T12:21:39.457Z,37088.00
2023-03-01T12:22:39.444Z,35744.00
2023-03-01T12:23:39.433Z,37824.00
2023-03-01T12:24:39.419Z,39936.00
2023-03-01T12:25:39.396Z,38784.00
2023-03-01T12:26:39.405Z,38400.00
2023-03-01T12:27:39.377Z,39552.00
2023-03-01T12:28:39.360Z,39584.00
2023-03-01T12:29:39.351Z,37888.00
2023-03-01T12:30:39.345Z,36384.00
2023-03-01T12:31:39.348Z,36992.00
2023-03-01T12:32:39.358Z,35008.00